createdAt,value
2016-12-30T00:00:21.380Z,60.99
2016-12-30T00:01:21.393Z,61.08
2016-12-30T00:02:21.802Z,61.27
2016-12-30T00:03:21.931Z,61.18
2016-12-30T00:04:21.827Z,61.18
2016-12-30T00:05:21.840Z,61.18
2016-12-30T00:06:21.868Z,61.46
2016-12-30T00:07:21.480Z,61.18
2016-12-30T00:08:21.879Z,61.08
2016-12-30T00:09:21.490Z,60.41
2016-12-30T00:10:21.901Z,60.03
2016-12-30T00:11:21.912Z,60.03
2016-12-30T00:12:21.528Z,60.41
2016-12-30T00:13:22.039Z,60.89
2016-12-30T00:14:21.951Z,61.18
2016-12-30T00:15:21.563Z,61.08
2016-12-30T00:16:21.975Z,60.32
2016-12-30T00:17:22.003Z,59.94
2016-12-30T00:18:22.002Z,60.06
2016-12-30T00:19:21.612Z,60.22
2016-12-30T00:20:21.623Z,59.97
2016-12-30T00:21:22.037Z,59.94
2016-12-30T00:22:21.656Z,59.59
2016-12-30T00:23:22.161Z,59.94
2016-12-30T00:24:22.072Z,59.69
2016-12-30T00:25:21.688Z,59.31
2016-12-30T00:26:21.697Z,59.84
2016-12-30T00:27:21.722Z,59.47
2016-12-30T00:28:22.120Z,59.66
2016-12-30T00:29:22.133Z,59.38
2016-12-30T00:30:21.745Z,60.03
2016-12-30T00:31:21.759Z,60.03
2016-12-30T00:32:21.768Z,60.51
2016-12-30T00:33:21.883Z,60.7
2016-12-30T00:34:21.803Z,60.89
2016-12-30T00:35:22.206Z,61.18
2016-12-30T00:36:22.218Z,61.18
2016-12-30T00:37:21.830Z,61.08
2016-12-30T00:38:21.843Z,60.7
2016-12-30T00:39:21.855Z,60.99
2016-12-30T00:40:21.865Z,60.41
2016-12-30T00:41:21.880Z,60.51
2016-12-30T00:42:22.290Z,60.41
2016-12-30T00:43:22.017Z,60.8
2016-12-30T00:44:22.319Z,60.7
2016-12-30T00:45:21.926Z,61.36
2016-12-30T00:46:21.938Z,61.27
2016-12-30T00:47:21.950Z,61.08
2016-12-30T00:48:21.962Z,60.7
2016-12-30T00:49:21.977Z,61.18
2016-12-30T00:50:22.383Z,61.74
2016-12-30T00:51:22.399Z,61.61
2016-12-30T00:52:22.409Z,61.71
2016-12-30T00:53:22.540Z,61.61
2016-12-30T00:54:22.035Z,61.36
2016-12-30T00:55:22.044Z,61.24
2016-12-30T00:56:22.473Z,61.46
2016-12-30T00:57:22.468Z,61.24
2016-12-30T00:58:22.082Z,61.52
2016-12-30T00:59:36.982Z,61.27
2016-12-30T01:00:22.506Z,61.15
2016-12-30T01:01:22.118Z,61.05
2016-12-30T01:02:22.128Z,61.71
2016-12-30T01:03:22.241Z,61.24
2016-12-30T01:04:22.156Z,61.15
2016-12-30T01:05:22.168Z,60.99
2016-12-30T01:06:22.177Z,60.99
2016-12-30T01:07:22.189Z,60.51
2016-12-30T01:08:22.603Z,60.8
2016-12-30T01:09:22.611Z,60.41
2016-12-30T01:10:22.625Z,60.32
2016-12-30T01:11:22.238Z,59.75
2016-12-30T01:12:22.647Z,60.03
2016-12-30T01:13:22.364Z,59.56
2016-12-30T01:14:22.272Z,59.47
2016-12-30T01:15:22.682Z,59.84
2016-12-30T01:16:22.699Z,59.56
2016-12-30T01:17:22.307Z,59.66
2016-12-30T01:18:22.718Z,60.22
2016-12-30T01:19:22.331Z,60.13
2016-12-30T01:20:22.741Z,60.96
2016-12-30T01:21:22.354Z,60.99
2016-12-30T01:22:22.366Z,61.15
2016-12-30T01:23:22.377Z,61.43
2016-12-30T01:24:22.397Z,61.05
2016-12-30T01:25:22.799Z,60.77
2016-12-30T01:26:22.413Z,60.1
2016-12-30T01:27:22.825Z,60.22
2016-12-30T01:28:22.536Z,60.22
2016-12-30T01:29:22.847Z,60.13
2016-12-30T01:30:22.859Z,60.03
2016-12-30T01:31:22.877Z,59.94
2016-12-30T01:32:22.883Z,60.03
2016-12-30T01:33:22.497Z,60.03
2016-12-30T01:34:22.508Z,59.66
2016-12-30T01:35:22.520Z,59.94
2016-12-30T01:36:22.932Z,60.96
2016-12-30T01:37:22.543Z,60.77
2016-12-30T01:38:22.956Z,60.7
2016-12-30T01:39:22.965Z,60.7
2016-12-30T01:40:22.982Z,60.32
2016-12-30T01:41:22.590Z,60.03
2016-12-30T01:42:22.606Z,60.22
2016-12-30T01:43:22.615Z,59.38
2016-12-30T01:44:22.628Z,60.03
2016-12-30T01:45:23.040Z,59.94
2016-12-30T01:46:22.648Z,59.91
2016-12-30T01:47:22.663Z,59.66
2016-12-30T01:48:22.673Z,59.66
2016-12-30T01:49:23.083Z,59.56
2016-12-30T01:50:23.096Z,59.94
2016-12-30T01:51:22.708Z,60.13
2016-12-30T01:52:22.720Z,59.84
2016-12-30T01:53:22.750Z,59.66
2016-12-30T01:54:22.761Z,59.94
2016-12-30T01:55:22.758Z,59.66
2016-12-30T01:56:23.167Z,59.47
2016-12-30T01:57:22.778Z,60.1
2016-12-30T01:58:23.196Z,59.91
2016-12-30T01:59:23.199Z,60.1
2016-12-30T02:00:22.816Z,60
2016-12-30T02:01:22.829Z,59.84
2016-12-30T02:02:23.238Z,59.47
2016-12-30T02:03:22.850Z,59.84
2016-12-30T02:04:23.260Z,59.94
2016-12-30T02:05:23.274Z,59.84
2016-12-30T02:06:22.885Z,59.56
2016-12-30T02:07:23.295Z,59.84
2016-12-30T02:08:22.908Z,59.47
2016-12-30T02:09:22.924Z,59.75
2016-12-30T02:10:23.330Z,59.75
2016-12-30T02:11:22.943Z,60.19
2016-12-30T02:12:23.353Z,60.13
2016-12-30T02:13:22.971Z,60.03
2016-12-30T02:14:22.977Z,60.03
2016-12-30T02:15:22.989Z,59.81
2016-12-30T02:16:23.400Z,59.34
2016-12-30T02:17:23.014Z,60.03
2016-12-30T02:18:23.433Z,59.53
2016-12-30T02:19:23.442Z,59.91
2016-12-30T02:20:23.448Z,60.1
2016-12-30T02:21:23.070Z,59.72
2016-12-30T02:22:23.082Z,59.72
2016-12-30T02:23:23.479Z,59.56
2016-12-30T02:24:23.494Z,59.63
2016-12-30T02:25:23.517Z,59.72
2016-12-30T02:26:23.118Z,60.1
2016-12-30T02:27:23.532Z,60.1
2016-12-30T02:28:23.546Z,60
2016-12-30T02:29:23.160Z,59.66
2016-12-30T02:30:23.563Z,59.75
2016-12-30T02:31:23.572Z,59.19
2016-12-30T02:32:23.184Z,59.81
2016-12-30T02:33:23.606Z,59.44
2016-12-30T02:34:23.618Z,59.63
2016-12-30T02:35:23.221Z,60
2016-12-30T02:36:23.235Z,59.81
2016-12-30T02:37:23.244Z,60.29
2016-12-30T02:38:23.253Z,60.38
2016-12-30T02:39:23.669Z,59.91
2016-12-30T02:40:23.683Z,60.77
2016-12-30T02:41:23.311Z,61.05
2016-12-30T02:42:23.733Z,61.24
2016-12-30T02:43:23.710Z,61.71
2016-12-30T02:44:23.339Z,61.15
2016-12-30T02:45:23.735Z,61.15
2016-12-30T02:46:23.749Z,61.33
2016-12-30T02:47:23.357Z,60.1
2016-12-30T02:48:23.771Z,60.19
2016-12-30T02:49:23.781Z,59.91
2016-12-30T02:50:23.792Z,60.1
2016-12-30T02:51:23.806Z,60.77
2016-12-30T02:52:23.820Z,61.05
2016-12-30T02:53:23.431Z,61.05
2016-12-30T02:54:23.838Z,60.67
2016-12-30T02:55:23.465Z,60.38
2016-12-30T02:56:23.547Z,59.72
2016-12-30T02:57:23.490Z,59.81
2016-12-30T02:58:23.500Z,60.58
2016-12-30T02:59:23.500Z,60.58
2016-12-30T03:00:23.911Z,60.77
2016-12-30T03:01:23.523Z,60.38
2016-12-30T03:02:23.931Z,59.91
2016-12-30T03:03:23.544Z,60.1
2016-12-30T03:04:23.557Z,60
2016-12-30T03:05:23.966Z,59.72
2016-12-30T03:06:23.987Z,59.34
2016-12-30T03:07:23.589Z,60
2016-12-30T03:08:23.602Z,60.19
2016-12-30T03:09:24.013Z,60.1
2016-12-30T03:10:24.020Z,59.91
2016-12-30T03:11:23.669Z,59.81
2016-12-30T03:12:24.046Z,59.91
2016-12-30T03:13:23.659Z,60.19
2016-12-30T03:14:23.672Z,60.67
2016-12-30T03:15:23.681Z,60.19
2016-12-30T03:16:23.711Z,60.38
2016-12-30T03:17:23.705Z,60.1
2016-12-30T03:18:23.717Z,60
2016-12-30T03:19:24.125Z,59.91
2016-12-30T03:20:23.736Z,59.72
2016-12-30T03:21:23.750Z,60
2016-12-30T03:22:23.760Z,59.91
2016-12-30T03:23:23.773Z,59.72
2016-12-30T03:24:24.190Z,60.19
2016-12-30T03:25:23.808Z,60
2016-12-30T03:26:23.820Z,59.81
2016-12-30T03:27:23.817Z,59.81
2016-12-30T03:28:24.229Z,59.91
2016-12-30T03:29:24.242Z,59.81
2016-12-30T03:30:24.251Z,59.91
2016-12-30T03:31:23.866Z,59.72
2016-12-30T03:32:23.874Z,59.81
2016-12-30T03:33:24.284Z,60.19
2016-12-30T03:34:24.296Z,60.58
2016-12-30T03:35:23.929Z,60.96
2016-12-30T03:36:23.925Z,60.29
2016-12-30T03:37:24.357Z,59.72
2016-12-30T03:38:23.943Z,60
2016-12-30T03:39:24.356Z,59.63
2016-12-30T03:40:24.373Z,59.44
2016-12-30T03:41:24.375Z,59.63
2016-12-30T03:42:23.991Z,59.91
2016-12-30T03:43:24.410Z,60.29
2016-12-30T03:44:24.011Z,60.96
2016-12-30T03:45:24.419Z,61.68
2016-12-30T03:46:24.430Z,61.02
2016-12-30T03:47:24.444Z,61.21
2016-12-30T03:48:24.456Z,61.11
2016-12-30T03:49:24.463Z,60.45
2016-12-30T03:50:24.082Z,60.67
2016-12-30T03:51:24.493Z,60.1
2016-12-30T03:52:24.102Z,60.1
2016-12-30T03:53:24.114Z,60.29
2016-12-30T03:54:24.522Z,60.83
2016-12-30T03:55:24.134Z,60.74
2016-12-30T03:56:24.545Z,61.11
2016-12-30T03:57:24.158Z,60.74
2016-12-30T03:58:24.195Z,60.93
2016-12-30T03:59:24.578Z,61.4
2016-12-30T04:00:24.588Z,60.67
2016-12-30T04:01:24.206Z,60.29
2016-12-30T04:02:24.613Z,59.91
2016-12-30T04:03:24.622Z,59.63
2016-12-30T04:04:24.634Z,59.91
2016-12-30T04:05:24.644Z,59.81
2016-12-30T04:06:24.280Z,59.98
2016-12-30T04:07:24.672Z,59.88
2016-12-30T04:08:24.292Z,60
2016-12-30T04:09:24.304Z,60
2016-12-30T04:10:24.700Z,59.91
2016-12-30T04:11:24.313Z,59.81
2016-12-30T04:12:24.322Z,59.69
2016-12-30T04:13:24.336Z,59.69
2016-12-30T04:14:24.747Z,59.98
2016-12-30T04:15:24.358Z,59.44
2016-12-30T04:16:24.370Z,59.81
2016-12-30T04:17:24.382Z,59.81
2016-12-30T04:18:24.390Z,59.63
2016-12-30T04:19:24.803Z,60.17
2016-12-30T04:20:24.812Z,59.69
2016-12-30T04:21:24.426Z,59.81
2016-12-30T04:22:24.838Z,59.81
2016-12-30T04:23:24.859Z,59.98
2016-12-30T04:24:24.458Z,59.98
2016-12-30T04:25:24.469Z,60.93
2016-12-30T04:26:24.477Z,61.49
2016-12-30T04:27:24.892Z,61.87
2016-12-30T04:28:24.511Z,61.77
2016-12-30T04:29:24.521Z,61.4
2016-12-30T04:31:24.536Z,60.83
2016-12-30T04:32:24.555Z,61.11
2016-12-30T04:33:24.557Z,61.11
2016-12-30T04:34:24.568Z,61.21
2016-12-30T04:35:24.578Z,60.26
2016-12-30T04:36:24.587Z,60.45
2016-12-30T04:37:25.002Z,60.26
2016-12-30T04:38:24.610Z,60.17
2016-12-30T04:39:24.622Z,60.36
2016-12-30T04:40:24.677Z,60.93
2016-12-30T04:41:25.044Z,61.21
2016-12-30T04:42:24.663Z,61.11
2016-12-30T04:43:25.078Z,61.87
2016-12-30T04:44:25.078Z,62.25
2016-12-30T04:45:25.092Z,61.58
2016-12-30T04:46:25.123Z,61.58
2016-12-30T04:47:25.110Z,62.44
2016-12-30T04:48:25.155Z,62.44
2016-12-30T04:49:25.134Z,61.58
2016-12-30T04:50:24.753Z,60.74
2016-12-30T04:51:25.153Z,60.07
2016-12-30T04:52:25.206Z,60.64
2016-12-30T04:53:24.774Z,60.45
2016-12-30T04:54:25.188Z,60.45
2016-12-30T04:55:24.798Z,60.36
2016-12-30T04:56:24.810Z,60.07
2016-12-30T04:57:24.860Z,59.88
2016-12-30T04:58:25.255Z,59.88
2016-12-30T04:59:24.840Z,59.69
2016-12-30T05:00:24.926Z,59.69
2016-12-30T05:01:25.279Z,59.6
2016-12-30T05:02:25.303Z,59.69
2016-12-30T05:03:25.306Z,59.69
2016-12-30T05:04:24.897Z,59.98
2016-12-30T05:05:24.910Z,59.03
2016-12-30T05:06:24.981Z,59.22
2016-12-30T05:07:25.351Z,59.5
2016-12-30T05:08:25.345Z,60.17
2016-12-30T05:09:25.381Z,59.79
2016-12-30T05:10:25.012Z,59.03
2016-12-30T05:11:25.412Z,59.79
2016-12-30T05:12:25.388Z,59.79
2016-12-30T05:13:24.996Z,60.07
2016-12-30T05:14:25.405Z,60.26
2016-12-30T05:15:25.016Z,60.07
2016-12-30T05:16:25.055Z,59.98
2016-12-30T05:17:25.484Z,60.26
2016-12-30T05:18:25.052Z,59.98
2016-12-30T05:19:25.072Z,59.6
2016-12-30T05:20:25.108Z,59.5
2016-12-30T05:21:25.505Z,59.79
2016-12-30T05:22:25.543Z,59.69
2016-12-30T05:23:25.567Z,59.5
2016-12-30T05:24:25.112Z,59.79
2016-12-30T05:25:25.174Z,59.5
2016-12-30T05:26:25.605Z,59.88
2016-12-30T05:27:25.565Z,59.98
2016-12-30T05:28:25.185Z,60.07
2016-12-30T05:29:25.658Z,59.98
2016-12-30T05:30:25.250Z,59.88
2016-12-30T05:31:25.587Z,59.6
2016-12-30T05:32:25.360Z,59.79
2016-12-30T05:33:25.260Z,59.69
2016-12-30T05:34:25.634Z,59.41
2016-12-30T05:35:25.681Z,59.6
2016-12-30T05:36:25.647Z,58.84
2016-12-30T05:37:25.695Z,59.03
2016-12-30T05:38:25.283Z,58.75
2016-12-30T05:39:25.323Z,59.22
2016-12-30T05:40:25.295Z,59.69
2016-12-30T05:41:25.786Z,59.88
2016-12-30T05:42:25.717Z,60.45
2016-12-30T05:43:25.315Z,59.88
2016-12-30T05:44:25.765Z,59.79
2016-12-30T05:45:25.812Z,59.69
2016-12-30T05:46:25.349Z,60.07
2016-12-30T05:47:25.774Z,60.07
2016-12-30T05:48:25.768Z,59.69
2016-12-30T05:49:25.834Z,60.07
2016-12-30T05:50:25.792Z,60.07
2016-12-30T05:51:25.801Z,60.55
2016-12-30T05:52:25.433Z,59.98
2016-12-30T05:53:25.819Z,59.79
2016-12-30T05:54:25.486Z,59.79
2016-12-30T05:55:25.497Z,60.07
2016-12-30T05:56:25.476Z,59.79
2016-12-30T05:57:26.063Z,59.98
2016-12-30T05:58:25.528Z,59.6
2016-12-30T05:59:25.512Z,58.75
2016-12-30T06:00:25.496Z,59.03
2016-12-30T06:01:25.507Z,58.65
2016-12-30T06:02:25.943Z,58.75
2016-12-30T06:03:25.928Z,59.12
2016-12-30T06:04:26.046Z,59.79
2016-12-30T06:05:25.965Z,60.07
2016-12-30T06:06:25.963Z,60.26
2016-12-30T06:07:25.618Z,60.07
2016-12-30T06:08:25.591Z,59.69
2016-12-30T06:09:26.007Z,59.22
2016-12-30T06:10:25.619Z,58.84
2016-12-30T06:11:26.013Z,59.98
2016-12-30T06:12:26.036Z,60.55
2016-12-30T06:13:26.111Z,60.89
2016-12-30T06:14:26.083Z,60.93
2016-12-30T06:15:26.060Z,59.79
2016-12-30T06:16:26.122Z,60.17
2016-12-30T06:17:26.108Z,59.69
2016-12-30T06:18:26.114Z,59.12
2016-12-30T06:19:26.121Z,58.75
2016-12-30T06:20:26.130Z,58.65
2016-12-30T06:21:25.720Z,58.56
2016-12-30T06:22:26.190Z,58.37
2016-12-30T06:23:25.758Z,58.65
2016-12-30T06:24:25.748Z,58.65
2016-12-30T06:25:25.758Z,58.56
2016-12-30T06:26:26.230Z,59.12
2016-12-30T06:27:25.790Z,59.03
2016-12-30T06:28:26.215Z,58.75
2016-12-30T06:29:26.211Z,59.03
2016-12-30T06:30:25.844Z,59.69
2016-12-30T06:31:26.244Z,59.22
2016-12-30T06:32:26.256Z,59.03
2016-12-30T06:33:25.841Z,59.03
2016-12-30T06:34:26.312Z,58.56
2016-12-30T06:35:26.259Z,58.37
2016-12-30T06:36:26.277Z,58.09
2016-12-30T06:37:25.991Z,58.28
2016-12-30T06:38:25.949Z,58.37
2016-12-30T06:39:26.030Z,58.75
2016-12-30T06:40:26.361Z,58.84
2016-12-30T06:41:25.924Z,59.12
2016-12-30T06:42:25.935Z,58.65
2016-12-30T06:43:25.973Z,58.28
2016-12-30T06:44:25.989Z,58.37
2016-12-30T06:45:25.998Z,58.75
2016-12-30T06:46:26.054Z,58.47
2016-12-30T06:47:26.384Z,58.65
2016-12-30T06:48:26.397Z,59.03
2016-12-30T06:49:26.072Z,58.91
2016-12-30T06:50:26.445Z,59.31
2016-12-30T06:51:26.447Z,59.03
2016-12-30T06:52:26.037Z,59.12
2016-12-30T06:53:26.069Z,59.03
2016-12-30T06:54:26.482Z,58.94
2016-12-30T06:55:26.066Z,58.94
2016-12-30T06:56:26.503Z,58.94
2016-12-30T06:57:26.485Z,58.56
2016-12-30T06:58:26.113Z,58.56
2016-12-30T06:59:26.532Z,58.09
2016-12-30T07:00:26.138Z,58.28
2016-12-30T07:01:26.556Z,58.28
2016-12-30T07:02:26.216Z,57.9
2016-12-30T07:03:26.169Z,58.28
2016-12-30T07:04:26.567Z,58.65
2016-12-30T07:05:26.171Z,58.65
2016-12-30T07:06:26.179Z,58.75
2016-12-30T07:07:26.655Z,59.03
2016-12-30T07:08:26.251Z,58.56
2016-12-30T07:09:26.272Z,58.65
2016-12-30T07:10:26.219Z,58.75
2016-12-30T07:11:26.710Z,59.03
2016-12-30T07:12:26.242Z,58.94
2016-12-30T07:13:26.264Z,58.75
2016-12-30T07:14:26.662Z,59.22
2016-12-30T07:15:26.766Z,58.94
2016-12-30T07:16:26.684Z,58.65
2016-12-30T07:17:26.358Z,58.65
2016-12-30T07:18:26.397Z,58.56
2016-12-30T07:19:26.753Z,58.56
2016-12-30T07:20:26.732Z,59.03
2016-12-30T07:21:26.401Z,59.03
2016-12-30T07:22:26.357Z,59.12
2016-12-30T07:23:26.816Z,58.75
2016-12-30T07:24:26.409Z,58.56
2016-12-30T07:25:26.770Z,58.94
2016-12-30T07:26:26.477Z,58.84
2016-12-30T07:27:26.795Z,59.03
2016-12-30T07:28:26.443Z,59.12
2016-12-30T07:29:26.827Z,58.84
2016-12-30T07:30:26.423Z,59.03
2016-12-30T07:31:26.840Z,59.12
2016-12-30T07:32:26.449Z,58.94
2016-12-30T07:33:26.867Z,59.03
2016-12-30T07:34:26.916Z,59.88
2016-12-30T07:35:26.476Z,59.6
2016-12-30T07:36:26.910Z,59.31
2016-12-30T07:37:26.935Z,59.79
2016-12-30T07:38:26.924Z,59.6
2016-12-30T07:39:26.966Z,59.98
2016-12-30T07:40:26.563Z,59.98
2016-12-30T07:41:26.939Z,59.6
2016-12-30T07:42:26.952Z,59.88
2016-12-30T07:43:27.041Z,60.17
2016-12-30T07:44:27.005Z,59.41
2016-12-30T07:45:26.599Z,59.5
2016-12-30T07:46:26.989Z,59.69
2016-12-30T07:47:26.627Z,59.69
2016-12-30T07:48:27.012Z,60.07
2016-12-30T07:49:26.672Z,60.17
2016-12-30T07:50:27.056Z,59.98
2016-12-30T07:51:26.674Z,60.26
2016-12-30T07:52:26.700Z,60.07
2016-12-30T07:53:27.093Z,59.98
2016-12-30T07:54:26.687Z,59.41
2016-12-30T07:55:26.706Z,59.5
2016-12-30T07:56:27.098Z,59.6
2016-12-30T07:57:26.770Z,59.41
2016-12-30T07:58:27.132Z,59.22
2016-12-30T07:59:27.170Z,59.6
2016-12-30T08:00:27.237Z,59.6
2016-12-30T08:01:26.771Z,59.88
2016-12-30T08:02:27.177Z,60.07
2016-12-30T08:03:27.191Z,59.98
2016-12-30T08:04:27.266Z,60.07
2016-12-30T08:05:26.784Z,59.98
2016-12-30T08:06:27.194Z,60.26
2016-12-30T08:07:26.829Z,60.17
2016-12-30T08:08:26.823Z,60.26
2016-12-30T08:09:27.271Z,60.74
2016-12-30T08:10:27.257Z,60.36
2016-12-30T08:11:27.295Z,60.36
2016-12-30T08:12:26.912Z,60.07
2016-12-30T08:13:26.901Z,59.98
2016-12-30T08:14:26.934Z,60.26
2016-12-30T08:15:26.933Z,59.88
2016-12-30T08:16:27.333Z,60.07
2016-12-30T08:17:27.308Z,59.5
2016-12-30T08:18:27.381Z,59.5
2016-12-30T08:19:27.382Z,59.5
2016-12-30T08:20:26.983Z,59.31
2016-12-30T08:21:27.002Z,59.22
2016-12-30T08:22:26.963Z,58.75
2016-12-30T08:23:27.025Z,59.03
2016-12-30T08:24:27.033Z,59.12
2016-12-30T08:25:27.394Z,59.03
2016-12-30T08:26:27.008Z,59.03
2016-12-30T08:27:27.064Z,58.65
2016-12-30T08:28:27.180Z,58.75
2016-12-30T08:29:27.496Z,58.65
2016-12-30T08:30:27.085Z,58.84
2016-12-30T08:31:27.124Z,59.03
2016-12-30T08:32:27.584Z,58.47
2016-12-30T08:33:27.081Z,58.65
2016-12-30T08:34:27.201Z,58.84
2016-12-30T08:35:27.130Z,59.03
2016-12-30T08:36:27.569Z,58.94
2016-12-30T08:37:27.571Z,59.03
2016-12-30T08:38:27.608Z,59.03
2016-12-30T08:39:27.222Z,59.03
2016-12-30T08:40:27.568Z,58.84
2016-12-30T08:41:27.216Z,59.12
2016-12-30T08:42:27.188Z,59.03
2016-12-30T08:43:27.218Z,59.12
2016-12-30T08:44:27.597Z,59.12
2016-12-30T08:45:27.308Z,58.97
2016-12-30T08:46:27.651Z,58.97
2016-12-30T08:47:27.244Z,58.97
2016-12-30T08:48:27.702Z,58.78
2016-12-30T08:49:27.689Z,58.97
2016-12-30T08:50:27.312Z,58.87
2016-12-30T08:51:27.730Z,59.06
2016-12-30T08:52:27.281Z,59.06
2016-12-30T08:53:27.744Z,58.87
2016-12-30T08:54:27.303Z,58.59
2016-12-30T08:55:27.857Z,58.68
2016-12-30T08:57:27.367Z,58.3
2016-12-30T08:58:27.881Z,58.59
2016-12-30T08:59:27.373Z,58.59
2016-12-30T09:00:27.413Z,58.49
2016-12-30T09:01:27.803Z,58.68
2016-12-30T09:02:27.827Z,58.49
2016-12-30T09:03:27.439Z,58.11
2016-12-30T09:04:27.413Z,58.68
2016-12-30T09:05:27.829Z,58.68
2016-12-30T09:06:27.437Z,58.59
2016-12-30T09:07:27.444Z,58.59
2016-12-30T09:08:27.463Z,58.4
2016-12-30T09:09:27.875Z,58.02
2016-12-30T09:10:27.511Z,57.83
2016-12-30T09:11:27.889Z,57.73
2016-12-30T09:12:27.911Z,58.11
2016-12-30T09:13:27.924Z,58.02
2016-12-30T09:14:27.554Z,58.11
2016-12-30T09:15:27.533Z,58.49
2016-12-30T09:16:27.950Z,58.3
2016-12-30T09:17:27.985Z,58.87
2016-12-30T09:18:27.992Z,59.63
2016-12-30T09:19:27.596Z,59.53
2016-12-30T09:20:27.995Z,59.72
2016-12-30T09:21:27.599Z,60.77
2016-12-30T09:22:28.018Z,60.51
2016-12-30T09:23:27.630Z,58.74
2016-12-30T09:24:27.646Z,56.21
2016-12-30T09:25:28.078Z,55.45
2016-12-30T09:26:27.657Z,55.45
2016-12-30T09:27:27.703Z,55.55
2016-12-30T09:28:28.118Z,55.17
2016-12-30T09:29:27.694Z,54.69
2016-12-30T09:30:27.707Z,53.94
2016-12-30T09:31:27.750Z,52.26
2016-12-30T09:32:28.140Z,50.93
2016-12-30T09:33:27.778Z,50.29
2016-12-30T09:34:27.767Z,49.24
2016-12-30T09:35:27.797Z,50.1
2016-12-30T09:36:28.184Z,50.29
2016-12-30T09:37:28.221Z,48.96
2016-12-30T09:38:28.211Z,48.7
2016-12-30T09:39:27.826Z,46.54
2016-12-30T09:40:27.839Z,45.14
2016-12-30T09:41:28.251Z,43.83
2016-12-30T09:42:28.264Z,43.73
2016-12-30T09:43:27.883Z,43.26
2016-12-30T09:44:27.916Z,43.83
2016-12-30T09:45:27.912Z,43.54
2016-12-30T09:46:27.929Z,42.97
2016-12-30T09:47:28.349Z,42.31
2016-12-30T09:48:28.376Z,42.31
2016-12-30T09:49:28.375Z,42
2016-12-30T09:50:27.997Z,42.02
2016-12-30T09:51:28.007Z,42.12
2016-12-30T09:52:28.423Z,41.83
2016-12-30T09:53:28.453Z,41.64
2016-12-30T09:54:28.055Z,42.21
2016-12-30T09:55:28.473Z,41.83
2016-12-30T09:56:28.498Z,42.04
2016-12-30T09:57:28.105Z,41.57
2016-12-30T09:58:28.121Z,41.38
2016-12-30T09:59:28.570Z,40.9
2016-12-30T10:00:28.563Z,40.62
2016-12-30T10:01:28.577Z,40.54
2016-12-30T10:02:28.213Z,39.87
2016-12-30T10:03:28.211Z,39.87
2016-12-30T10:04:28.623Z,39.69
2016-12-30T10:05:28.666Z,39.87
2016-12-30T10:06:28.695Z,39.5
2016-12-30T10:07:28.282Z,39.12
2016-12-30T10:08:28.309Z,38.07
2016-12-30T10:09:28.713Z,37.88
2016-12-30T10:10:28.735Z,38.34
2016-12-30T10:11:28.750Z,39.19
2016-12-30T10:12:28.386Z,39.86
2016-12-30T10:13:28.402Z,40.31
2016-12-30T10:14:28.417Z,40.88
2016-12-30T10:15:28.826Z,41.83
2016-12-30T10:16:28.450Z,40.81
2016-12-30T10:17:28.864Z,41.38
2016-12-30T10:18:28.643Z,40.71
2016-12-30T10:19:28.924Z,39.87
2016-12-30T10:20:28.523Z,39.4
2016-12-30T10:21:29.078Z,38.83
2016-12-30T10:22:28.550Z,39.21
2016-12-30T10:23:28.992Z,38.64
2016-12-30T10:24:28.610Z,38.45
2016-12-30T10:25:29.001Z,37.8
2016-12-30T10:26:29.019Z,37.9
2016-12-30T10:27:28.659Z,37.71
2016-12-30T10:28:28.665Z,37.99
2016-12-30T10:29:29.075Z,37.8
2016-12-30T10:30:29.100Z,37.8
2016-12-30T10:31:29.112Z,37.8
2016-12-30T10:32:28.745Z,37.04
2016-12-30T10:33:29.148Z,37.13
2016-12-30T10:34:29.175Z,37.9
2016-12-30T10:35:29.181Z,37.13
2016-12-30T10:36:29.234Z,37.71
2016-12-30T10:37:28.845Z,37.54
2016-12-30T10:38:28.833Z,37.06
2016-12-30T10:39:29.255Z,36.77
2016-12-30T10:40:28.876Z,36.49
2016-12-30T10:41:29.452Z,36.1
2016-12-30T10:42:28.909Z,37.61
2016-12-30T10:43:28.931Z,38.28
2016-12-30T10:44:28.947Z,37.9
2016-12-30T10:45:29.364Z,37.13
2016-12-30T10:46:28.983Z,37.15
2016-12-30T10:47:29.015Z,36.77
2016-12-30T10:48:29.026Z,37.44
2016-12-30T10:49:29.435Z,37.63
2016-12-30T10:50:29.455Z,37.06
2016-12-30T10:51:29.072Z,36.39
2016-12-30T10:52:29.090Z,36.3
2016-12-30T10:53:29.507Z,37.13
2016-12-30T10:54:29.588Z,38.54
2016-12-30T10:55:29.154Z,39.95
2016-12-30T10:56:29.162Z,40.52
2016-12-30T10:57:29.181Z,40.52
2016-12-30T10:58:29.638Z,41.09
2016-12-30T10:59:29.616Z,41.09
2016-12-30T11:00:29.634Z,41.28
2016-12-30T11:01:29.251Z,40.62
2016-12-30T11:02:29.667Z,39.69
2016-12-30T11:03:29.314Z,39.21
2016-12-30T11:04:29.704Z,38.92
2016-12-30T11:05:29.324Z,38.45
2016-12-30T11:06:29.745Z,39.02
2016-12-30T11:07:29.757Z,39.87
2016-12-30T11:08:29.793Z,39.61
2016-12-30T11:09:29.795Z,39.23
2016-12-30T11:10:29.436Z,38.85
2016-12-30T11:11:29.445Z,39.04
2016-12-30T11:12:29.449Z,39.12
2016-12-30T11:13:29.860Z,39.04
2016-12-30T11:14:29.490Z,38.66
2016-12-30T11:15:29.499Z,38.56
2016-12-30T11:16:29.517Z,37.82
2016-12-30T11:17:29.572Z,38.47
2016-12-30T11:18:30.036Z,39.02
2016-12-30T11:19:29.605Z,38.75
2016-12-30T11:20:29.984Z,37.8
2016-12-30T11:21:30.049Z,37.73
2016-12-30T11:22:29.621Z,37.82
2016-12-30T11:23:29.647Z,37.92
2016-12-30T11:24:29.652Z,37.92
2016-12-30T11:25:30.070Z,38.2
2016-12-30T11:26:30.084Z,37.82
2016-12-30T11:27:30.102Z,37.74
2016-12-30T11:28:30.124Z,37.17
2016-12-30T11:29:30.137Z,36.88
2016-12-30T11:30:30.156Z,36.69
2016-12-30T11:31:29.781Z,36.79
2016-12-30T11:32:29.797Z,36.98
2016-12-30T11:33:30.270Z,36.98
2016-12-30T11:34:29.825Z,37.74
2016-12-30T11:35:30.277Z,37.65
2016-12-30T11:36:29.860Z,37.08
2016-12-30T11:37:30.279Z,36.69
2016-12-30T11:38:29.896Z,36.51
2016-12-30T11:39:29.938Z,36.41
2016-12-30T11:40:30.332Z,36.51
2016-12-30T11:41:30.358Z,36.41
2016-12-30T11:42:29.965Z,36.12
2016-12-30T11:43:30.408Z,36.6
2016-12-30T11:44:30.402Z,35.74
2016-12-30T11:45:30.020Z,36.33
2016-12-30T11:46:30.448Z,36.24
2016-12-30T11:47:30.087Z,36.62
2016-12-30T11:48:30.092Z,36.43
2016-12-30T11:49:30.107Z,36.05
2016-12-30T11:50:30.115Z,36.14
2016-12-30T11:51:30.132Z,35.76
2016-12-30T11:52:30.545Z,36.6
2016-12-30T11:53:30.565Z,36.41
2016-12-30T11:54:30.181Z,36.2
2016-12-30T11:55:30.604Z,36.88
2016-12-30T11:56:30.217Z,36.41
2016-12-30T11:57:30.237Z,36.51
2016-12-30T11:58:30.651Z,36.52
2016-12-30T11:59:30.718Z,36.33
2016-12-30T12:00:30.291Z,36.33
2016-12-30T12:01:30.705Z,36.14
2016-12-30T12:02:30.344Z,36.24
2016-12-30T12:03:30.772Z,36.43
2016-12-30T12:04:30.770Z,35.86
2016-12-30T12:05:30.777Z,35.57
2016-12-30T12:06:30.808Z,35.66
2016-12-30T12:07:30.436Z,35.28
2016-12-30T12:08:30.831Z,35.39
2016-12-30T12:09:30.869Z,35.3
2016-12-30T12:10:30.469Z,35.3
2016-12-30T12:11:30.887Z,34.63
2016-12-30T12:12:30.533Z,34.52
2016-12-30T12:13:30.924Z,34.9
2016-12-30T12:14:30.941Z,36.58
2016-12-30T12:15:30.983Z,37.63
2016-12-30T12:16:30.597Z,38.37
2016-12-30T12:17:30.599Z,39.02
2016-12-30T12:18:30.644Z,39.12
2016-12-30T12:19:31.055Z,39.21
2016-12-30T12:20:31.053Z,39.69
2016-12-30T12:21:31.075Z,39.42
2016-12-30T12:22:31.094Z,39.32
2016-12-30T12:23:31.112Z,38.78
2016-12-30T12:24:30.729Z,37.73
2016-12-30T12:25:30.757Z,37.93
2016-12-30T12:26:30.769Z,37.65
2016-12-30T12:27:31.199Z,37.46
2016-12-30T12:28:30.799Z,36.88
2016-12-30T12:29:31.217Z,36.41
2016-12-30T12:30:30.851Z,36.6
2016-12-30T12:31:31.253Z,36.81
2016-12-30T12:32:30.871Z,36.43
2016-12-30T12:33:31.297Z,36.14
2016-12-30T12:34:30.907Z,35.28
2016-12-30T12:35:30.925Z,35.38
2016-12-30T12:36:31.342Z,35.95
2016-12-30T12:37:30.964Z,36.24
2016-12-30T12:38:31.379Z,36.05
2016-12-30T12:39:31.399Z,35.57
2016-12-30T12:40:31.036Z,35.68
2016-12-30T12:41:31.036Z,35.97
2016-12-30T12:42:31.454Z,36.07
2016-12-30T12:43:31.072Z,35.49
2016-12-30T12:44:31.088Z,35.59
2016-12-30T12:45:31.110Z,35.3
2016-12-30T12:46:31.130Z,35.13
2016-12-30T12:47:31.543Z,35.13
2016-12-30T12:48:31.165Z,34.82
2016-12-30T12:49:31.580Z,34.94
2016-12-30T12:50:31.207Z,34.75
2016-12-30T12:51:31.269Z,34.65
2016-12-30T12:52:31.238Z,34.55
2016-12-30T12:53:31.260Z,34.27
2016-12-30T12:54:31.363Z,34.17
2016-12-30T12:55:31.827Z,34.27
2016-12-30T12:56:31.354Z,33.79
2016-12-30T12:57:31.739Z,33.7
2016-12-30T12:59:31.409Z,33.6